Time;durP1;ratioP1;P1;durP2;ratioP2;P2;SDS_P1;SDS_P2;PMS_P1;PMS_P2;Temp;Humidity;BMP_temperature;BMP_pressure;BME280_temperature;BME280_humidity;BME280_pressure;Samples;Min_cycle;Max_cycle;Signal;HPM_P1;HPM_P2
2022/03/08 00:02:25;;;;;;;7.85;5.95;;;6.90;75.20;;;;;;5000317;28;20087;-85
2022/03/08 00:04:50;;;;;;;9.40;6.47;;;6.90;75.20;;;;;;4999063;28;20117;-84
2022/03/08 00:07:16;;;;;;;8.18;6.47;;;6.90;75.20;;;;;;4999704;28;20121;-84
2022/03/08 00:09:43;;;;;;;7.47;5.75;;;6.90;75.20;;;;;;5000565;28;20025;-84
2022/03/08 00:12:10;;;;;;;8.65;6.50;;;6.80;75.20;;;;;;4997771;28;20038;-85
2022/03/08 00:14:36;;;;;;;8.20;6.57;;;6.80;75.20;;;;;;4994971;28;20025;-85
2022/03/08 00:17:03;;;;;;;7.60;5.95;;;6.80;75.20;;;;;;4997649;28;20032;-84
2022/03/08 00:19:28;;;;;;;7.90;6.28;;;6.80;75.20;;;;;;4994052;28;20096;-84
2022/03/08 00:21:55;;;;;;;9.07;6.82;;;6.80;75.20;;;;;;4999084;28;20072;-84
2022/03/08 00:24:21;;;;;;;8.00;5.93;;;6.70;75.10;;;;;;5006364;28;20053;-84
2022/03/08 00:26:46;;;;;;;8.82;6.45;;;6.70;75.10;;;;;;4999539;28;20493;-84
2022/03/08 00:29:12;;;;;;;8.15;6.05;;;6.70;75.10;;;;;;4990219;28;20053;-83
2022/03/08 00:31:38;;;;;;;7.47;6.05;;;6.70;75.10;;;;;;5013423;28;20397;-84
2022/03/08 00:34:07;;;;;;;8.43;6.57;;;6.60;75.10;;;;;;4994964;28;20144;-84
2022/03/08 00:36:34;;;;;;;7.60;6.07;;;6.60;75.10;;;;;;5003265;28;20045;-85
2022/03/08 00:38:59;;;;;;;7.75;5.90;;;6.60;75.10;;;;;;4996926;28;20028;-84
2022/03/08 00:41:26;;;;;;;8.10;6.18;;;6.60;75.10;;;;;;4984172;28;20406;-85
2022/03/08 00:43:52;;;;;;;9.07;6.70;;;6.50;75.10;;;;;;4983975;28;20036;-85
2022/03/08 00:46:18;;;;;;;8.15;6.50;;;6.60;75.10;;;;;;5000247;28;20041;-84
2022/03/08 00:48:44;;;;;;;8.60;6.03;;;6.50;75.00;;;;;;5016122;28;20032;-83
2022/03/08 00:51:11;;;;;;;7.78;6.13;;;6.50;75.00;;;;;;5016362;28;20040;-84
2022/03/08 00:53:38;;;;;;;7.90;6.13;;;6.50;75.00;;;;;;5012180;28;20021;-85
2022/03/08 00:56:04;;;;;;;7.75;5.93;;;6.50;75.00;;;;;;4982280;28;20026;-85
2022/03/08 00:58:30;;;;;;;7.88;6.07;;;6.40;75.00;;;;;;4990996;28;20030;-85
2022/03/08 01:00:56;;;;;;;7.97;6.07;;;6.40;75.00;;;;;;4996637;28;20395;-85
2022/03/08 01:03:22;;;;;;;7.70;6.30;;;6.40;75.00;;;;;;4996137;28;20100;-84
2022/03/08 01:05:48;;;;;;;8.05;6.35;;;6.30;74.90;;;;;;5029608;28;20195;-85
2022/03/08 01:08:14;;;;;;;8.77;6.45;;;6.30;74.90;;;;;;4998828;28;20036;-85
2022/03/08 01:10:41;;;;;;;7.60;5.88;;;6.30;74.90;;;;;;5004064;28;20025;-84
2022/03/08 01:13:07;;;;;;;7.60;5.72;;;6.30;75.00;;;;;;4993085;28;20054;-84
2022/03/08 01:15:33;;;;;;;7.55;5.78;;;6.30;75.00;;;;;;4999850;28;20087;-84
2022/03/08 01:17:59;;;;;;;8.23;6.20;;;6.30;75.00;;;;;;4996771;28;20041;-85
2022/03/08 01:20:25;;;;;;;8.02;5.63;;;6.30;75.00;;;;;;5004533;28;20038;-84
2022/03/08 01:22:53;;;;;;;7.90;6.03;;;6.20;74.90;;;;;;4998259;28;20027;-85
2022/03/08 01:25:20;;;;;;;7.80;5.82;;;6.20;75.00;;;;;;5001738;28;20030;-84
2022/03/08 01:27:47;;;;;;;7.45;5.75;;;6.20;75.00;;;;;;4992718;28;20042;-85
2022/03/08 01:30:16;;;;;;;8.18;5.80;;;6.20;75.00;;;;;;5012863;28;20026;-85
2022/03/08 01:32:42;;;;;;;9.07;6.07;;;6.20;75.00;;;;;;5011671;28;20033;-85
2022/03/08 01:35:08;;;;;;;8.52;5.82;;;6.20;74.90;;;;;;4994292;28;20422;-85
2022/03/08 01:37:35;;;;;;;7.32;5.85;;;6.10;74.90;;;;;;4992510;28;20038;-85
2022/03/08 01:40:01;;;;;;;7.43;5.93;;;6.10;74.90;;;;;;5005912;28;20034;-84
2022/03/08 01:42:26;;;;;;;8.23;6.32;;;6.10;74.90;;;;;;5013333;28;20018;-85
2022/03/08 01:44:54;;;;;;;8.48;6.10;;;6.10;74.90;;;;;;5004069;28;20019;-85
2022/03/08 01:47:23;;;;;;;7.93;6.05;;;6.00;74.90;;;;;;4990467;28;20088;-86
2022/03/08 01:49:51;;;;;;;7.47;5.57;;;6.00;74.90;;;;;;5011283;28;20121;-85
2022/03/08 01:52:22;;;;;;;8.20;6.20;;;6.00;74.90;;;;;;4975032;28;20092;-85
2022/03/08 01:54:49;;;;;;;7.50;5.57;;;6.00;74.90;;;;;;5007805;28;20493;-85
2022/03/08 01:57:15;;;;;;;8.23;5.90;;;5.90;74.90;;;;;;4979033;28;20030;-85
2022/03/08 01:59:42;;;;;;;7.25;5.90;;;6.00;74.90;;;;;;4997928;28;20041;-85
2022/03/08 02:02:08;;;;;;;7.70;6.25;;;5.90;74.90;;;;;;5030597;28;20025;-85
2022/03/08 02:04:35;;;;;;;7.15;5.38;;;5.90;74.90;;;;;;5018482;28;20032;-84
2022/03/08 02:07:02;;;;;;;8.23;5.72;;;5.90;74.90;;;;;;5009737;28;20094;-85
2022/03/08 02:09:27;;;;;;;7.88;5.75;;;5.80;74.80;;;;;;4981938;28;20034;-85
2022/03/08 02:11:53;;;;;;;7.90;5.15;;;5.80;74.80;;;;;;4977986;28;20471;-85
2022/03/08 02:14:19;;;;;;;7.53;5.65;;;5.80;74.90;;;;;;4993857;28;20085;-85
2022/03/08 02:16:46;;;;;;;6.95;5.35;;;5.80;74.80;;;;;;4995917;28;20110;-84
2022/03/08 02:19:13;;;;;;;7.53;5.50;;;5.80;74.80;;;;;;4984425;28;20534;-85
2022/03/08 02:21:40;;;;;;;7.50;5.75;;;5.80;74.80;;;;;;4987529;28;20506;-85
2022/03/08 02:24:06;;;;;;;7.93;5.63;;;5.70;74.80;;;;;;4991268;28;20525;-85
2022/03/08 02:26:32;;;;;;;8.10;5.95;;;5.70;74.80;;;;;;4970678;28;20035;-85
2022/03/08 02:29:00;;;;;;;7.95;5.75;;;5.70;74.80;;;;;;4985016;28;20109;-85
2022/03/08 02:31:26;;;;;;;8.27;5.95;;;5.70;74.80;;;;;;4990124;28;20062;-85
2022/03/08 02:33:52;;;;;;;8.35;5.80;;;5.60;74.80;;;;;;4976867;28;20188;-84
2022/03/08 02:36:18;;;;;;;7.10;5.13;;;5.70;74.80;;;;;;4980437;28;20031;-85
2022/03/08 02:38:44;;;;;;;7.10;5.20;;;5.60;74.70;;;;;;5000188;28;20030;-85
2022/03/08 02:41:10;;;;;;;6.90;5.45;;;5.60;75.30;;;;;;4991178;28;20034;-85
2022/03/08 02:43:35;;;;;;;6.80;5.25;;;5.60;74.70;;;;;;4990912;28;20491;-85
2022/03/08 02:46:02;;;;;;;7.95;5.50;;;5.60;74.70;;;;;;4958848;28;20038;-85
2022/03/08 02:48:29;;;;;;;7.00;4.82;;;5.50;74.70;;;;;;4991798;28;20026;-85
2022/03/08 02:50:55;;;;;;;7.50;5.25;;;5.50;74.70;;;;;;4971853;28;20068;-84
2022/03/08 02:53:21;;;;;;;8.10;5.60;;;5.50;74.80;;;;;;4955366;28;20062;-84
2022/03/08 02:55:47;;;;;;;7.13;5.03;;;5.50;74.70;;;;;;4985627;28;20059;-85
2022/03/08 02:58:13;;;;;;;6.97;5.35;;;5.40;74.70;;;;;;4985436;28;20066;-85
2022/03/08 03:00:39;;;;;;;7.43;5.15;;;5.40;74.70;;;;;;4969027;28;20022;-85
2022/03/08 03:03:06;;;;;;;7.68;4.90;;;5.40;74.70;;;;;;4987079;28;20062;-85
2022/03/08 03:05:32;;;;;;;6.93;4.97;;;5.40;74.70;;;;;;4973132;28;20140;-85
2022/03/08 03:07:58;;;;;;;6.95;5.05;;;5.40;74.70;;;;;;4984938;28;20043;-85
2022/03/08 03:10:24;;;;;;;7.18;5.45;;;5.40;74.70;;;;;;4989345;28;20030;-85
2022/03/08 03:12:52;;;;;;;6.47;4.63;;;5.40;74.70;;;;;;4973765;28;20014;-85
2022/03/08 03:15:18;;;;;;;7.40;5.00;;;5.30;74.70;;;;;;4980629;28;20039;-84
2022/03/08 03:17:45;;;;;;;7.10;5.00;;;5.30;74.70;;;;;;4978301;28;20044;-85
2022/03/08 03:20:14;;;;;;;6.72;5.05;;;5.30;74.80;;;;;;4975355;28;20086;-85
2022/03/08 03:22:40;;;;;;;6.57;5.18;;;5.30;74.70;;;;;;5009724;28;20022;-85
2022/03/08 03:25:07;;;;;;;6.18;5.00;;;5.30;74.70;;;;;;4989536;28;20115;-85
2022/03/08 03:27:33;;;;;;;6.05;4.63;;;5.20;74.70;;;;;;5007107;28;20126;-85
2022/03/08 03:29:59;;;;;;;6.35;5.00;;;5.20;74.70;;;;;;5010276;28;20066;-85
2022/03/08 03:32:24;;;;;;;5.15;4.22;;;5.20;74.70;;;;;;4975160;28;20206;-85
2022/03/08 03:34:51;;;;;;;6.38;4.28;;;5.20;74.70;;;;;;4993656;28;20533;-85
2022/03/08 03:37:17;;;;;;;5.60;4.20;;;5.20;74.70;;;;;;4993324;28;20061;-85
2022/03/08 03:39:43;;;;;;;5.80;4.50;;;5.10;74.70;;;;;;4985582;28;20035;-84
2022/03/08 03:42:09;;;;;;;5.78;4.13;;;5.10;74.70;;;;;;4992001;28;20526;-85
2022/03/08 03:44:35;;;;;;;5.68;4.38;;;5.10;74.70;;;;;;4994040;28;20168;-85
2022/03/08 03:47:01;;;;;;;5.97;4.65;;;5.10;74.70;;;;;;4969669;28;20026;-85
2022/03/08 03:49:27;;;;;;;5.93;4.60;;;5.00;74.70;;;;;;4989513;28;20564;-86
2022/03/08 03:51:53;;;;;;;5.93;4.20;;;5.10;74.70;;;;;;4977002;28;20030;-85
2022/03/08 03:54:20;;;;;;;5.05;4.30;;;5.00;74.70;;;;;;4995433;28;20034;-85
2022/03/08 03:56:46;;;;;;;6.00;4.22;;;5.00;74.70;;;;;;4993643;28;20088;-85
2022/03/08 03:59:12;;;;;;;5.88;4.20;;;5.00;74.70;;;;;;4997448;28;20029;-85
2022/03/08 04:01:38;;;;;;;6.25;4.40;;;5.00;74.70;;;;;;4977846;28;20039;-85
2022/03/08 04:04:04;;;;;;;5.45;4.10;;;5.00;74.70;;;;;;4994179;28;20018;-84
2022/03/08 04:06:30;;;;;;;5.70;4.07;;;5.00;74.70;;;;;;4978711;28;20038;-85
2022/03/08 04:08:56;;;;;;;5.40;4.13;;;4.90;74.70;;;;;;5009996;28;20042;-85
2022/03/08 04:11:21;;;;;;;6.38;4.63;;;4.90;74.70;;;;;;4997216;28;20030;-85
2022/03/08 04:13:47;;;;;;;6.60;4.25;;;4.90;74.70;;;;;;4997436;28;20026;-85
2022/03/08 04:16:13;;;;;;;5.22;4.15;;;4.90;74.70;;;;;;4979480;28;20023;-85
2022/03/08 04:18:39;;;;;;;5.50;4.35;;;4.90;74.70;;;;;;4993171;28;20181;-84
2022/03/08 04:21:04;;;;;;;5.88;4.50;;;4.90;74.70;;;;;;4984332;28;20062;-85
2022/03/08 04:23:30;;;;;;;5.70;4.20;;;4.80;74.70;;;;;;4977444;28;20494;-85
2022/03/08 04:25:56;;;;;;;6.57;4.18;;;4.80;74.70;;;;;;4969193;28;20022;-84
2022/03/08 04:28:22;;;;;;;5.40;4.03;;;4.80;74.70;;;;;;4992758;28;20035;-85
2022/03/08 04:30:48;;;;;;;5.15;3.72;;;4.80;74.70;;;;;;4971112;28;20030;-85
2022/03/08 04:33:14;;;;;;;6.88;4.30;;;4.80;74.80;;;;;;4962302;28;20070;-85
2022/03/08 04:35:39;;;;;;;5.88;4.63;;;4.80;74.70;;;;;;4976455;28;20057;-85
2022/03/08 04:38:05;;;;;;;6.05;4.18;;;4.70;74.70;;;;;;4984595;28;20061;-84
2022/03/08 04:40:32;;;;;;;6.32;4.15;;;4.80;74.80;;;;;;4982915;28;20027;-84
2022/03/08 04:42:57;;;;;;;5.88;4.30;;;4.80;74.80;;;;;;4992493;28;20096;-84
2022/03/08 04:45:23;;;;;;;6.13;4.43;;;4.70;74.70;;;;;;4959966;28;20035;-84
2022/03/08 04:47:49;;;;;;;6.15;4.38;;;4.70;74.80;;;;;;4976377;28;20162;-84
2022/03/08 04:50:16;;;;;;;6.22;3.95;;;4.70;74.80;;;;;;4977369;28;20220;-85
2022/03/08 04:52:48;;;;;;;6.97;4.50;;;4.70;74.80;;;;;;4993289;28;20037;-84
2022/03/08 04:55:15;;;;;;;5.82;4.10;;;4.70;74.80;;;;;;4986620;28;20032;-85
2022/03/08 04:57:42;;;;;;;6.13;4.20;;;4.60;74.80;;;;;;4974822;28;20038;-85
2022/03/08 05:00:11;;;;;;;6.03;4.50;;;4.60;74.80;;;;;;4993385;28;20109;-84
2022/03/08 05:02:39;;;;;;;5.68;4.15;;;4.60;74.80;;;;;;4960075;28;20026;-85
2022/03/08 05:05:06;;;;;;;6.05;4.18;;;4.60;74.80;;;;;;4966877;28;20417;-85
2022/03/08 05:07:32;;;;;;;6.32;4.35;;;4.60;74.80;;;;;;4988274;28;20113;-84
2022/03/08 05:09:58;;;;;;;5.75;4.05;;;4.60;74.80;;;;;;4990312;28;20120;-85
2022/03/08 05:12:23;;;;;;;5.53;4.07;;;4.60;74.90;;;;;;4956369;28;20027;-84
2022/03/08 05:14:49;;;;;;;5.60;4.05;;;4.60;74.80;;;;;;4976375;28;20494;-85
2022/03/08 05:17:15;;;;;;;5.18;3.92;;;4.50;74.80;;;;;;4977068;28;20181;-85
2022/03/08 05:19:41;;;;;;;5.45;3.88;;;4.50;74.80;;;;;;4989545;28;20197;-84
2022/03/08 05:22:06;;;;;;;4.60;3.47;;;4.50;74.80;;;;;;4969627;28;20126;-84
2022/03/08 05:24:32;;;;;;;5.90;4.15;;;4.50;74.80;;;;;;4982571;28;20093;-84
2022/03/08 05:26:58;;;;;;;5.10;3.95;;;4.50;74.80;;;;;;4986220;28;20038;-85
2022/03/08 05:29:24;;;;;;;5.32;4.28;;;4.50;74.80;;;;;;4984843;28;20113;-84
2022/03/08 05:31:50;;;;;;;5.25;3.88;;;4.50;74.80;;;;;;5002182;28;20037;-84
2022/03/08 05:34:15;;;;;;;5.05;4.30;;;4.50;74.90;;;;;;4975147;28;20121;-84
2022/03/08 05:36:41;;;;;;;5.60;4.25;;;4.50;74.90;;;;;;4985212;28;20051;-85
2022/03/08 05:39:07;;;;;;;5.32;3.90;;;4.40;74.80;;;;;;4974183;28;20058;-85
2022/03/08 05:41:34;;;;;;;4.70;3.65;;;4.40;74.80;;;;;;4970439;28;20026;-85
2022/03/08 05:43:59;;;;;;;5.45;3.95;;;4.40;74.80;;;;;;4972824;28;20068;-85
2022/03/08 05:46:25;;;;;;;5.70;4.07;;;4.40;74.80;;;;;;4976273;28;20053;-85
2022/03/08 05:48:51;;;;;;;5.88;4.38;;;4.40;74.80;;;;;;4975617;28;20038;-84
2022/03/08 05:51:17;;;;;;;6.15;4.47;;;4.40;74.80;;;;;;4973138;28;20033;-85
2022/03/08 05:53:43;;;;;;;6.28;4.35;;;4.30;74.80;;;;;;4970331;28;20427;-85
2022/03/08 05:56:09;;;;;;;5.40;4.00;;;4.40;74.80;;;;;;4983827;28;20038;-84
2022/03/08 05:58:34;;;;;;;5.70;4.32;;;4.30;74.80;;;;;;4971989;28;20030;-84
2022/03/08 06:01:00;;;;;;;5.50;4.07;;;4.40;74.80;;;;;;4972494;28;20176;-84
2022/03/08 06:03:26;;;;;;;5.63;4.15;;;4.30;74.80;;;;;;4954189;28;20038;-82
2022/03/08 06:05:52;;;;;;;6.43;5.00;;;4.30;74.80;;;;;;4978830;28;20026;-84
2022/03/08 06:08:18;;;;;;;5.35;4.15;;;4.30;74.80;;;;;;4985295;28;20046;-84
2022/03/08 06:10:44;;;;;;;5.88;4.32;;;4.30;74.90;;;;;;4962242;28;20443;-81
2022/03/08 06:13:09;;;;;;;5.15;4.20;;;4.30;74.90;;;;;;4981460;28;20027;-80
2022/03/08 06:15:35;;;;;;;5.50;4.32;;;4.30;74.90;;;;;;4979796;28;20038;-81
2022/03/08 06:18:01;;;;;;;5.82;4.38;;;4.30;74.90;;;;;;4983477;28;20038;-81
2022/03/08 06:20:27;;;;;;;6.60;4.53;;;4.20;74.80;;;;;;4980209;28;20055;-80
2022/03/08 06:22:54;;;;;;;5.80;4.70;;;4.20;74.80;;;;;;4984731;28;21616;-80
2022/03/08 06:25:20;;;;;;;6.05;4.25;;;4.20;74.90;;;;;;4972556;28;20475;-80
2022/03/08 06:27:46;;;;;;;4.85;3.90;;;4.20;74.90;;;;;;4965256;28;20039;-82
2022/03/08 06:30:12;;;;;;;5.40;4.38;;;4.20;74.80;;;;;;4977445;28;20038;-83
2022/03/08 06:32:38;;;;;;;5.57;4.28;;;4.20;74.90;;;;;;4949975;28;20034;-82
2022/03/08 06:35:04;;;;;;;5.93;4.30;;;4.10;74.90;;;;;;4981992;28;20023;-81
2022/03/08 06:37:30;;;;;;;5.30;4.28;;;4.20;74.90;;;;;;4964685;28;20126;-80
2022/03/08 06:39:56;;;;;;;5.93;4.40;;;4.10;74.80;;;;;;4980469;28;20126;-79
2022/03/08 06:42:22;;;;;;;5.63;3.83;;;4.10;74.90;;;;;;4984969;28;20026;-80
2022/03/08 06:44:47;;;;;;;5.43;4.10;;;4.10;74.90;;;;;;4956987;28;20074;-83
2022/03/08 06:47:13;;;;;;;6.20;4.70;;;4.10;74.90;;;;;;4965731;28;20108;-80
2022/03/08 06:49:41;;;;;;;6.22;4.60;;;4.10;74.90;;;;;;4938801;28;20061;-80
2022/03/08 06:52:09;;;;;;;5.70;4.30;;;4.10;74.90;;;;;;4962671;28;20027;-81
2022/03/08 06:54:35;;;;;;;5.30;4.45;;;4.10;74.90;;;;;;4982726;28;20027;-79
2022/03/08 06:57:02;;;;;;;5.22;4.00;;;4.10;74.90;;;;;;4983569;28;20057;-79
2022/03/08 06:59:27;;;;;;;6.30;4.38;;;4.10;74.90;;;;;;4985461;28;20413;-81
2022/03/08 07:01:53;;;;;;;6.57;4.65;;;4.10;74.90;;;;;;4971093;28;20035;-81
2022/03/08 07:04:19;;;;;;;6.28;4.70;;;4.00;74.90;;;;;;4980431;28;20387;-80
2022/03/08 07:06:45;;;;;;;6.30;4.35;;;4.10;75.00;;;;;;4974059;28;20038;-79
2022/03/08 07:09:10;;;;;;;6.47;4.30;;;4.10;75.00;;;;;;4947456;28;20026;-80
2022/03/08 07:11:36;;;;;;;5.70;4.47;;;4.10;75.00;;;;;;4975636;28;20037;-79
2022/03/08 07:14:05;;;;;;;6.43;5.07;;;4.00;74.90;;;;;;4981572;28;20023;-79
2022/03/08 07:16:31;;;;;;;6.10;4.47;;;4.00;74.90;;;;;;4974691;28;20549;-79
2022/03/08 07:18:56;;;;;;;6.75;4.82;;;4.00;74.90;;;;;;4972788;28;20149;-79
2022/03/08 07:21:23;;;;;;;6.85;5.05;;;4.00;74.90;;;;;;4996636;28;20057;-80
2022/03/08 07:23:49;;;;;;;6.05;4.93;;;4.00;74.90;;;;;;5012992;28;20111;-80
2022/03/08 07:26:14;;;;;;;6.00;4.60;;;4.00;74.90;;;;;;4998542;28;20033;-79
2022/03/08 07:28:40;;;;;;;6.22;4.25;;;4.00;74.90;;;;;;5001187;28;20034;-80
2022/03/08 07:31:07;;;;;;;5.75;4.60;;;4.00;75.00;;;;;;5013887;28;20053;-80
2022/03/08 07:33:33;;;;;;;6.72;4.88;;;4.00;75.00;;;;;;5017102;28;20076;-79
2022/03/08 07:35:59;;;;;;;5.75;4.35;;;4.00;74.90;;;;;;5033055;28;20026;-79
2022/03/08 07:38:26;;;;;;;6.55;4.80;;;4.00;75.00;;;;;;5034875;28;20025;-80
2022/03/08 07:40:52;;;;;;;5.60;4.43;;;4.00;75.00;;;;;;4983739;28;20037;-81
2022/03/08 07:43:17;;;;;;;5.63;4.50;;;4.00;75.00;;;;;;5000423;28;20060;-81
2022/03/08 07:45:44;;;;;;;5.70;3.97;;;4.00;75.00;;;;;;5016765;28;20057;-81
2022/03/08 07:48:09;;;;;;;6.32;4.60;;;4.00;75.00;;;;;;4998312;28;20045;-79
2022/03/08 07:50:36;;;;;;;6.43;4.47;;;4.10;75.10;;;;;;5005298;28;20033;-80
2022/03/08 07:53:03;;;;;;;5.88;4.00;;;4.00;75.10;;;;;;4999124;28;20030;-80
2022/03/08 07:55:29;;;;;;;7.10;5.15;;;4.00;75.10;;;;;;5000116;28;20021;-81
2022/03/08 07:57:56;;;;;;;5.57;4.35;;;4.00;75.10;;;;;;5000509;28;20084;-80
2022/03/08 08:00:24;;;;;;;6.45;4.65;;;4.00;75.10;;;;;;5001370;28;20120;-80
2022/03/08 08:02:49;;;;;;;6.20;4.63;;;4.10;75.10;;;;;;4996775;28;20032;-80
2022/03/08 08:05:17;;;;;;;6.35;4.55;;;4.10;75.10;;;;;;4999335;28;20108;-82
2022/03/08 08:07:42;;;;;;;5.05;4.07;;;4.10;75.10;;;;;;5000098;28;20030;-80
2022/03/08 08:10:09;;;;;;;5.53;4.32;;;4.10;75.10;;;;;;4999998;28;20469;-81
2022/03/08 08:12:34;;;;;;;7.10;4.55;;;4.10;75.10;;;;;;5012870;28;20040;-81
2022/03/08 08:15:00;;;;;;;5.82;4.13;;;4.10;75.10;;;;;;4996011;28;20082;-80
2022/03/08 08:17:26;;;;;;;6.28;4.50;;;4.10;75.20;;;;;;5000110;28;20049;-82
2022/03/08 08:19:52;;;;;;;6.88;4.78;;;4.10;75.20;;;;;;5003156;28;20486;-81
2022/03/08 08:22:17;;;;;;;5.65;4.45;;;4.10;75.20;;;;;;5022241;28;20022;-81
2022/03/08 08:24:43;;;;;;;5.85;4.40;;;4.10;75.10;;;;;;5013430;28;20037;-82
2022/03/08 08:27:09;;;;;;;6.18;4.60;;;4.10;75.20;;;;;;5000777;28;20473;-80
2022/03/08 08:29:35;;;;;;;5.63;4.38;;;4.20;75.20;;;;;;4998634;28;20037;-81
2022/03/08 08:32:00;;;;;;;6.65;4.50;;;4.20;75.20;;;;;;4994594;28;20024;-81
2022/03/08 08:34:26;;;;;;;6.38;4.85;;;4.20;75.20;;;;;;4996979;28;20069;-81
2022/03/08 08:36:52;;;;;;;5.85;4.47;;;4.20;75.20;;;;;;4996173;28;20030;-79
2022/03/08 08:39:18;;;;;;;6.43;4.53;;;4.20;75.20;;;;;;4982933;28;20026;-81
2022/03/08 08:41:44;;;;;;;6.30;4.40;;;4.20;75.20;;;;;;4999263;28;20029;-82
2022/03/08 08:44:11;;;;;;;5.20;4.03;;;4.30;75.30;;;;;;5015492;28;20072;-81
2022/03/08 08:46:37;;;;;;;6.30;4.93;;;4.20;75.80;;;;;;5017424;28;20040;-80
2022/03/08 08:49:04;;;;;;;5.63;4.22;;;4.20;75.20;;;;;;5007784;28;20056;-81
2022/03/08 08:51:30;;;;;;;5.53;4.13;;;4.30;75.30;;;;;;4999573;28;20121;-80
2022/03/08 08:53:56;;;;;;;6.30;4.68;;;4.30;75.30;;;;;;4983266;28;20044;-80
2022/03/08 08:56:22;;;;;;;6.70;4.43;;;4.30;75.20;;;;;;4997969;28;20120;-82
2022/03/08 08:58:48;;;;;;;6.25;4.75;;;4.30;75.20;;;;;;4999309;28;20025;-80
2022/03/08 09:01:13;;;;;;;6.25;4.45;;;4.40;75.20;;;;;;4998773;28;20029;-81
2022/03/08 09:03:39;;;;;;;5.72;4.22;;;4.40;75.20;;;;;;4999043;28;20071;-81
2022/03/08 09:06:05;;;;;;;5.80;4.55;;;4.40;75.20;;;;;;4998651;28;20390;-81
2022/03/08 09:08:31;;;;;;;5.95;4.45;;;4.40;75.20;;;;;;4998612;28;20117;-80
2022/03/08 09:10:57;;;;;;;5.68;4.55;;;4.50;75.30;;;;;;4990363;28;20068;-81
2022/03/08 09:13:23;;;;;;;5.63;3.95;;;4.50;75.30;;;;;;4981498;28;20057;-80
2022/03/08 09:15:50;;;;;;;5.85;4.43;;;4.50;75.20;;;;;;5015179;28;20032;-81
2022/03/08 09:18:16;;;;;;;6.93;4.97;;;4.60;75.20;;;;;;5006675;28;20482;-82
2022/03/08 09:20:43;;;;;;;5.43;4.13;;;4.60;75.20;;;;;;4998747;28;20050;-81
2022/03/08 09:23:09;;;;;;;7.65;4.70;;;4.60;75.10;;;;;;5007464;28;20103;-78
2022/03/08 09:25:36;;;;;;;6.25;4.78;;;4.70;75.10;;;;;;5014134;28;20026;-81
2022/03/08 09:28:02;;;;;;;7.13;5.15;;;4.80;75.10;;;;;;4998603;28;20033;-80
2022/03/08 09:30:29;;;;;;;6.20;4.40;;;4.80;75.00;;;;;;5014865;28;20470;-82
2022/03/08 09:32:58;;;;;;;6.10;4.63;;;4.90;75.00;;;;;;4999133;28;20474;-83
2022/03/08 09:35:26;;;;;;;5.53;4.18;;;4.90;75.00;;;;;;4998261;28;20083;-83
2022/03/08 09:37:54;;;;;;;5.68;4.40;;;5.00;75.00;;;;;;5013878;28;20119;-83
2022/03/08 09:40:20;;;;;;;6.78;4.72;;;5.00;74.90;;;;;;5006697;28;20029;-83
2022/03/08 09:42:46;;;;;;;6.00;4.40;;;5.10;74.90;;;;;;4998771;28;20036;-82
2022/03/08 09:45:12;;;;;;;6.10;4.55;;;5.20;74.90;;;;;;4998448;28;20056;-82
2022/03/08 09:47:38;;;;;;;6.95;4.70;;;5.20;74.80;;;;;;4998498;28;20049;-83
2022/03/08 09:50:05;;;;;;;6.57;4.65;;;5.30;74.80;;;;;;4998082;28;20509;-82
2022/03/08 09:52:35;;;;;;;5.55;4.35;;;5.30;74.70;;;;;;4998841;28;20026;-82
2022/03/08 09:55:02;;;;;;;6.50;4.53;;;5.40;74.70;;;;;;4998479;28;20022;-82
2022/03/08 09:57:27;;;;;;;6.30;4.72;;;5.40;74.60;;;;;;4982284;28;20454;-82
2022/03/08 09:59:54;;;;;;;6.35;4.53;;;5.50;74.60;;;;;;4998548;28;20523;-82
2022/03/08 10:02:22;;;;;;;6.57;4.75;;;5.60;74.60;;;;;;4970790;28;20033;-84
2022/03/08 10:05:02;;;;;;;7.53;4.70;;;5.70;74.60;;;;;;5027800;28;20037;-82
2022/03/08 10:07:27;;;;;;;6.18;4.53;;;5.70;74.60;;;;;;4991511;28;20060;-81
2022/03/08 10:09:58;;;;;;;6.13;4.90;;;5.80;74.50;;;;;;4998553;28;20049;-81
2022/03/08 10:12:25;;;;;;;5.82;4.75;;;5.90;74.50;;;;;;4995169;28;20467;-81
2022/03/08 10:14:51;;;;;;;6.40;4.72;;;6.00;74.40;;;;;;4992458;28;20529;-81
2022/03/08 10:17:35;;;;;;;5.85;4.57;;;6.00;74.40;;;;;;4997934;28;20504;-82
2022/03/08 10:20:10;;;;;;;6.03;4.53;;;6.10;74.40;;;;;;4981814;28;20057;-82
2022/03/08 10:22:38;;;;;;;6.68;5.05;;;6.20;74.30;;;;;;5014029;28;20044;-83
2022/03/08 10:25:10;;;;;;;6.45;4.50;;;6.30;74.30;;;;;;5016664;28;20153;-83
2022/03/08 10:27:36;;;;;;;6.07;4.32;;;6.40;74.30;;;;;;5013156;28;20029;-82
2022/03/08 10:30:04;;;;;;;5.90;4.53;;;6.40;74.30;;;;;;5013204;28;20031;-82
2022/03/08 10:32:37;;;;;;;7.43;4.53;;;6.50;74.30;;;;;;4999678;28;20045;-83
2022/03/08 10:35:03;;;;;;;6.60;5.07;;;6.60;74.30;;;;;;4997890;28;20029;-81
2022/03/08 10:37:36;;;;;;;5.43;4.53;;;6.70;74.30;;;;;;4997498;28;20025;-82
2022/03/08 10:40:32;;;;;;;6.03;4.55;;;6.80;74.30;;;;;;4990237;28;20421;-82
2022/03/08 10:43:01;;;;;;;5.20;4.22;;;6.90;74.30;;;;;;5006019;28;20037;-82
2022/03/08 10:45:28;;;;;;;6.80;4.82;;;6.90;74.10;;;;;;5005693;28;20103;-82
2022/03/08 10:47:55;;;;;;;6.90;4.55;;;7.00;74.20;;;;;;5005891;28;20469;-82
2022/03/08 10:50:23;;;;;;;6.03;4.55;;;7.10;74.20;;;;;;5013556;28;20029;-82
2022/03/08 10:52:51;;;;;;;5.90;4.60;;;7.20;74.20;;;;;;4997394;28;20030;-82
2022/03/08 10:55:26;;;;;;;6.70;4.95;;;7.30;74.20;;;;;;4997549;28;20022;-81
2022/03/08 10:58:00;;;;;;;6.53;5.10;;;7.40;74.20;;;;;;5006334;28;20543;-82
2022/03/08 11:00:29;;;;;;;5.70;4.50;;;7.50;74.20;;;;;;5015267;28;20033;-82
2022/03/08 11:02:58;;;;;;;5.90;4.72;;;7.60;74.10;;;;;;5017820;28;20108;-82
2022/03/08 11:05:27;;;;;;;7.25;4.65;;;7.60;74.00;;;;;;5016706;28;20022;-82
2022/03/08 11:07:55;;;;;;;5.85;4.88;;;7.80;74.10;;;;;;5009443;28;20525;-82
2022/03/08 11:10:21;;;;;;;5.43;4.35;;;7.80;74.00;;;;;;4997624;28;20462;-82
2022/03/08 11:12:47;;;;;;;7.40;4.95;;;7.90;74.00;;;;;;4978745;28;20066;-82
2022/03/08 11:15:16;;;;;;;6.15;4.97;;;8.00;74.00;;;;;;4999799;28;20076;-83
2022/03/08 11:17:47;;;;;;;5.53;4.60;;;8.10;74.00;;;;;;5035895;28;20121;-83
2022/03/08 11:20:16;;;;;;;6.93;4.80;;;8.20;73.80;;;;;;5001941;28;20045;-82
2022/03/08 11:22:42;;;;;;;5.30;4.03;;;8.20;73.70;;;;;;5007012;28;20037;-83
2022/03/08 11:25:10;;;;;;;5.82;4.40;;;8.30;73.60;;;;;;5017210;28;20033;-83
2022/03/08 11:27:39;;;;;;;6.00;4.47;;;8.40;73.60;;;;;;5016739;28;20517;-82
2022/03/08 11:30:09;;;;;;;5.55;4.20;;;8.40;73.60;;;;;;5017406;28;20033;-82
2022/03/08 11:32:50;;;;;;;6.30;4.32;;;8.50;73.60;;;;;;4984227;28;20029;-83
2022/03/08 11:35:40;;;;;;;5.20;4.05;;;8.60;73.60;;;;;;5010362;28;20470;-82
2022/03/08 11:38:12;;;;;;;6.95;4.30;;;8.70;73.70;;;;;;5024095;28;20180;-82
2022/03/08 11:40:38;;;;;;;5.63;4.38;;;8.70;73.60;;;;;;5032274;28;20061;-82
2022/03/08 11:43:07;;;;;;;5.53;4.40;;;8.80;73.70;;;;;;5016893;28;20021;-81
2022/03/08 11:45:34;;;;;;;5.22;4.30;;;8.80;73.70;;;;;;5000363;28;20394;-82
2022/03/08 11:48:04;;;;;;;5.72;4.10;;;8.90;73.80;;;;;;4999173;28;20089;-81
2022/03/08 11:50:39;;;;;;;5.10;4.10;;;8.90;73.80;;;;;;5031865;28;20648;-82
2022/03/08 11:53:05;;;;;;;4.68;3.80;;;9.00;73.80;;;;;;4999577;28;20104;-80
2022/03/08 11:55:34;;;;;;;5.75;4.18;;;9.10;73.80;;;;;;5000313;28;20164;-82
2022/03/08 11:58:02;;;;;;;5.22;4.15;;;9.10;73.80;;;;;;5008668;28;20121;-82
2022/03/08 12:00:42;;;;;;;4.47;3.80;;;9.20;73.80;;;;;;5000467;28;20049;-80
2022/03/08 12:03:12;;;;;;;4.88;3.95;;;9.20;73.90;;;;;;5016387;28;20026;-81
2022/03/08 12:05:37;;;;;;;5.13;4.13;;;9.30;73.90;;;;;;4984832;28;20029;-82
2022/03/08 12:08:22;;;;;;;5.15;4.15;;;9.30;74.00;;;;;;5016981;28;20140;-79
2022/03/08 12:10:49;;;;;;;5.38;4.25;;;9.40;74.20;;;;;;5032310;28;20030;-79
2022/03/08 12:13:15;;;;;;;5.65;4.45;;;9.40;74.10;;;;;;4996075;28;20033;-80
2022/03/08 12:16:09;;;;;;;4.63;3.63;;;9.50;74.10;;;;;;4999932;28;20030;-79
2022/03/08 12:18:36;;;;;;;5.88;3.83;;;9.50;74.20;;;;;;4991124;28;20112;-79
2022/03/08 12:21:14;;;;;;;5.18;3.90;;;9.60;74.10;;;;;;4999381;28;20049;-80
2022/03/08 12:23:47;;;;;;;5.28;4.20;;;9.60;74.20;;;;;;5025759;28;20034;-78
2022/03/08 12:26:38;;;;;;;5.07;3.80;;;9.70;74.20;;;;;;4999076;28;20033;-79
2022/03/08 12:29:22;;;;;;;6.72;3.72;;;9.70;74.20;;;;;;5009829;28;20037;-75
2022/03/08 12:31:57;;;;;;;5.22;4.15;;;9.80;74.10;;;;;;4999248;28;20450;-78
2022/03/08 12:34:47;;;;;;;;;;;9.90;74.10;;;;;;5014725;28;20029;-82
2022/03/08 12:37:18;;;;;;;4.38;3.60;;;9.90;74.10;;;;;;5022842;28;20012;-77
2022/03/08 12:39:52;;;;;;;6.00;3.60;;;9.90;73.90;;;;;;5008516;28;20041;-76
2022/03/08 12:42:43;;;;;;;4.38;3.53;;;10.00;74.00;;;;;;5014758;28;20112;-78
2022/03/08 12:45:15;;;;;;;4.88;3.75;;;10.00;74.00;;;;;;4998263;28;20466;-76
2022/03/08 12:47:44;;;;;;;4.82;3.80;;;10.00;73.90;;;;;;5032200;28;20025;-76
2022/03/08 12:50:11;;;;;;;5.40;3.90;;;10.10;73.90;;;;;;4990093;28;20451;-76
2022/03/08 12:52:41;;;;;;;5.78;4.38;;;10.20;73.90;;;;;;5031337;28;20381;-77
2022/03/08 12:55:10;;;;;;;5.25;3.90;;;10.20;73.90;;;;;;4991110;28;20037;-76
2022/03/08 12:57:46;;;;;;;5.32;4.32;;;10.30;73.80;;;;;;4992769;28;20160;-78
2022/03/08 13:00:29;;;;;;;7.38;4.60;;;10.30;73.90;;;;;;5007509;28;20026;-77